Time;durP1;ratioP1;P1;durP2;ratioP2;P2;SDS_P1;SDS_P2;PMS_P1;PMS_P2;Temp;Humidity;BMP_temperature;BMP_pressure;BME280_temperature;BME280_humidity;BME280_pressure;Samples;Min_cycle;Max_cycle;Signal;HPM_P1;HPM_P2
2021/04/30 00:02:23;;;;;;;15.82;9.80;;;5.90;99.90;;;;;;5056382;28;20021;-72
2021/04/30 00:04:51;;;;;;;15.73;10.13;;;6.00;99.90;;;;;;5055802;28;20172;-72
2021/04/30 00:07:19;;;;;;;16.83;10.32;;;6.00;99.90;;;;;;5056248;28;20079;-72
2021/04/30 00:09:47;;;;;;;14.85;9.32;;;6.00;99.90;;;;;;5056383;28;20028;-72
2021/04/30 00:12:15;;;;;;;15.00;10.05;;;6.00;99.90;;;;;;5059358;28;20032;-72
2021/04/30 00:14:43;;;;;;;16.42;10.15;;;6.00;99.90;;;;;;5060442;28;20094;-72
2021/04/30 00:17:10;;;;;;;13.70;9.35;;;6.00;99.90;;;;;;5060181;28;20040;-72
2021/04/30 00:19:38;;;;;;;14.93;9.75;;;6.00;99.90;;;;;;5042594;28;20182;-72
2021/04/30 00:22:05;;;;;;;14.98;9.57;;;6.00;99.90;;;;;;5060145;28;20028;-72
2021/04/30 00:24:33;;;;;;;17.10;9.68;;;6.10;99.90;;;;;;5060206;28;20368;-72
2021/04/30 00:27:01;;;;;;;14.98;10.02;;;6.00;99.90;;;;;;5060145;28;20348;-72
2021/04/30 00:29:29;;;;;;;18.13;10.77;;;6.10;99.90;;;;;;5060273;28;20328;-72
2021/04/30 00:31:56;;;;;;;16.80;10.77;;;6.00;99.90;;;;;;5041956;28;20025;-72
2021/04/30 00:34:24;;;;;;;17.08;10.55;;;6.00;99.90;;;;;;5058985;28;20044;-72
2021/04/30 00:36:52;;;;;;;18.08;11.52;;;6.10;99.90;;;;;;5058840;28;20057;-72
2021/04/30 00:39:20;;;;;;;16.70;10.50;;;6.10;99.90;;;;;;5058924;28;20021;-72
2021/04/30 00:41:48;;;;;;;16.50;10.55;;;6.10;99.90;;;;;;5059083;28;20031;-72
2021/04/30 00:44:16;;;;;;;15.27;10.32;;;6.10;99.90;;;;;;5058790;28;20059;-72
2021/04/30 00:46:44;;;;;;;15.85;9.52;;;6.10;99.90;;;;;;5058872;28;20025;-72
2021/04/30 00:49:12;;;;;;;15.25;10.02;;;6.10;99.90;;;;;;5059777;28;20111;-72
2021/04/30 00:51:40;;;;;;;16.45;10.20;;;6.10;99.90;;;;;;5058879;28;20480;-72
2021/04/30 00:54:08;;;;;;;15.18;9.63;;;6.20;99.90;;;;;;5059909;28;20029;-72
2021/04/30 00:56:36;;;;;;;19.88;11.52;;;6.10;99.90;;;;;;5042143;28;20440;-72
2021/04/30 00:59:04;;;;;;;15.57;10.82;;;6.10;99.90;;;;;;5059770;28;20071;-72
2021/04/30 01:01:33;;;;;;;18.15;11.88;;;6.20;99.90;;;;;;5059660;28;20021;-72
2021/04/30 01:04:02;;;;;;;18.08;11.43;;;6.20;99.90;;;;;;5059281;28;20025;-72
2021/04/30 01:06:31;;;;;;;19.90;12.10;;;6.20;99.90;;;;;;5059377;28;20485;-72
2021/04/30 01:08:59;;;;;;;20.42;13.00;;;6.20;99.90;;;;;;5059754;28;20036;-72
2021/04/30 01:11:26;;;;;;;18.08;11.48;;;6.20;99.90;;;;;;5059845;28;20041;-72
2021/04/30 01:13:54;;;;;;;19.02;11.90;;;6.20;99.90;;;;;;5058068;28;20018;-72
2021/04/30 01:16:23;;;;;;;18.98;12.63;;;6.30;99.90;;;;;;5058724;28;20021;-72
2021/04/30 01:18:50;;;;;;;17.63;10.05;;;6.30;99.90;;;;;;5058799;28;20100;-72
2021/04/30 01:21:17;;;;;;;20.83;13.45;;;6.30;99.90;;;;;;5057870;28;20025;-72
2021/04/30 01:23:50;;;;;;;22.20;13.25;;;6.30;99.90;;;;;;5058018;28;20117;-72
2021/04/30 01:26:18;;;;;;;23.85;12.90;;;6.30;99.90;;;;;;5058059;28;20025;-72
2021/04/30 01:28:48;;;;;;;21.08;11.45;;;6.30;99.90;;;;;;5058849;28;20029;-72
2021/04/30 01:31:17;;;;;;;22.42;13.18;;;6.30;99.90;;;;;;5040474;28;20029;-72
2021/04/30 01:33:45;;;;;;;18.70;11.27;;;6.40;99.90;;;;;;5040814;28;20039;-72
2021/04/30 01:36:12;;;;;;;18.77;12.23;;;6.40;99.90;;;;;;5058691;28;20025;-71
2021/04/30 01:38:40;;;;;;;19.23;11.75;;;6.40;99.90;;;;;;5059333;28;20401;-71
2021/04/30 01:41:07;;;;;;;24.02;13.32;;;6.40;99.90;;;;;;5058997;28;20044;-71
2021/04/30 01:43:35;;;;;;;19.75;12.52;;;6.40;99.90;;;;;;5058728;28;20017;-72
2021/04/30 01:46:06;;;;;;;21.48;12.70;;;6.40;99.90;;;;;;5041258;28;20025;-72
2021/04/30 01:48:35;;;;;;;19.45;12.35;;;6.40;99.90;;;;;;5059161;28;20029;-72
2021/04/30 01:51:04;;;;;;;19.25;12.00;;;6.40;99.90;;;;;;5058954;28;20082;-72
2021/04/30 01:53:34;;;;;;;19.90;13.48;;;6.50;99.90;;;;;;5040813;28;20078;-71
2021/04/30 01:56:12;;;;;;;19.45;11.55;;;6.50;99.90;;;;;;5058148;28;20405;-72
2021/04/30 01:58:41;;;;;;;20.58;12.05;;;6.50;99.90;;;;;;5058034;28;20051;-72
2021/04/30 02:01:10;;;;;;;22.88;12.52;;;6.50;99.90;;;;;;5057416;28;20028;-72
2021/04/30 02:03:38;;;;;;;17.23;11.32;;;6.50;99.90;;;;;;5057655;28;20316;-72
2021/04/30 02:06:06;;;;;;;16.73;10.43;;;6.50;99.90;;;;;;5040188;28;20021;-72
2021/04/30 02:08:34;;;;;;;15.95;9.70;;;6.50;99.90;;;;;;5057284;28;20031;-72
2021/04/30 02:11:02;;;;;;;17.17;10.82;;;6.50;99.90;;;;;;5057246;28;20032;-72
2021/04/30 02:13:30;;;;;;;17.85;10.93;;;6.60;99.90;;;;;;5039603;28;20108;-72
2021/04/30 02:15:59;;;;;;;16.95;10.20;;;6.60;99.90;;;;;;5057589;28;20053;-72
2021/04/30 02:18:26;;;;;;;18.05;10.88;;;6.60;99.90;;;;;;5058271;28;20025;-72
2021/04/30 02:20:54;;;;;;;16.20;10.10;;;6.60;99.90;;;;;;5057951;28;20075;-72
2021/04/30 02:23:22;;;;;;;14.30;8.73;;;6.60;99.90;;;;;;5058248;28;20340;-72
2021/04/30 02:25:50;;;;;;;19.23;10.27;;;6.60;99.90;;;;;;5040469;28;20029;-72
2021/04/30 02:28:18;;;;;;;16.08;9.90;;;6.60;99.90;;;;;;5058494;28;20021;-71
2021/04/30 02:30:46;;;;;;;14.50;9.70;;;6.60;99.90;;;;;;5057754;28;20033;-71
2021/04/30 02:33:13;;;;;;;14.82;10.02;;;6.60;99.90;;;;;;5057148;28;20029;-72
2021/04/30 02:35:43;;;;;;;15.38;9.85;;;6.60;99.90;;;;;;5057214;28;20056;-72
2021/04/30 02:38:12;;;;;;;14.73;9.20;;;6.60;99.90;;;;;;5056886;28;20017;-72
2021/04/30 02:40:43;;;;;;;15.65;9.60;;;6.60;99.90;;;;;;5056716;28;20380;-72
2021/04/30 02:43:14;;;;;;;15.93;9.77;;;6.60;99.90;;;;;;5057228;28;20025;-72
2021/04/30 02:45:42;;;;;;;17.92;11.13;;;6.70;99.90;;;;;;5056615;28;20040;-72
2021/04/30 02:48:22;;;;;;;16.65;10.05;;;6.70;99.90;;;;;;5056995;28;20021;-72
2021/04/30 02:50:51;;;;;;;20.00;11.40;;;6.70;99.90;;;;;;5056482;28;20025;-72
2021/04/30 02:53:18;;;;;;;18.80;11.63;;;6.70;99.90;;;;;;5056520;28;20048;-72
2021/04/30 02:55:46;;;;;;;20.05;12.02;;;6.70;99.90;;;;;;5057141;28;20457;-72
2021/04/30 02:58:13;;;;;;;16.98;10.63;;;6.70;99.90;;;;;;5057914;28;20468;-72
2021/04/30 03:00:41;;;;;;;18.08;11.13;;;6.80;99.90;;;;;;5057384;28;20117;-72
2021/04/30 03:03:08;;;;;;;17.27;11.13;;;6.80;99.90;;;;;;5057611;28;20076;-72
2021/04/30 03:05:37;;;;;;;21.15;12.07;;;6.80;99.90;;;;;;5058052;28;20432;-72
2021/04/30 03:08:05;;;;;;;20.08;11.77;;;6.80;99.90;;;;;;5057327;28;20028;-72
2021/04/30 03:10:33;;;;;;;18.35;11.65;;;6.80;99.90;;;;;;5057296;28;20100;-72
2021/04/30 03:13:01;;;;;;;19.40;11.95;;;6.90;99.90;;;;;;5057751;28;20305;-72
2021/04/30 03:15:29;;;;;;;19.15;11.85;;;6.90;99.90;;;;;;5056023;28;20036;-72
2021/04/30 03:17:57;;;;;;;18.52;11.85;;;6.90;99.90;;;;;;5056309;28;20025;-72
2021/04/30 03:20:25;;;;;;;20.77;12.20;;;6.90;99.90;;;;;;5056097;28;20021;-72
2021/04/30 03:22:52;;;;;;;21.50;12.60;;;6.90;99.90;;;;;;5056385;28;20100;-72
2021/04/30 03:25:20;;;;;;;21.60;12.20;;;6.90;99.90;;;;;;5056143;28;20305;-72
2021/04/30 03:27:48;;;;;;;20.10;12.40;;;6.90;99.90;;;;;;5056491;28;20036;-72
2021/04/30 03:30:16;;;;;;;19.90;12.07;;;6.90;99.90;;;;;;5056700;28;20029;-72
2021/04/30 03:32:43;;;;;;;19.95;12.63;;;6.90;99.90;;;;;;5038655;28;20021;-72
2021/04/30 03:35:16;;;;;;;20.83;13.02;;;6.90;99.90;;;;;;5056351;28;20117;-72
2021/04/30 03:37:45;;;;;;;23.05;14.02;;;7.00;99.90;;;;;;5056705;28;20108;-72
2021/04/30 03:40:13;;;;;;;19.83;12.50;;;7.00;99.90;;;;;;5056980;28;20421;-72
2021/04/30 03:42:41;;;;;;;21.65;13.57;;;6.90;99.90;;;;;;5057177;28;20401;-72
2021/04/30 03:45:09;;;;;;;21.60;13.07;;;7.00;99.90;;;;;;5057351;28;20104;-72
2021/04/30 03:47:36;;;;;;;21.00;13.30;;;7.00;99.90;;;;;;5061181;28;20372;-72
2021/04/30 03:50:04;;;;;;;23.42;13.88;;;6.90;99.90;;;;;;5061113;28;20029;-72
2021/04/30 03:52:31;;;;;;;22.45;13.82;;;7.00;99.90;;;;;;5043122;28;20055;-72
2021/04/30 03:55:00;;;;;;;22.15;14.10;;;7.00;99.90;;;;;;5060762;28;20017;-72
2021/04/30 03:57:28;;;;;;;22.92;14.00;;;7.00;99.90;;;;;;5059735;28;20029;-72
2021/04/30 03:59:56;;;;;;;21.90;14.50;;;7.00;99.90;;;;;;5059649;28;20051;-72
2021/04/30 04:02:23;;;;;;;21.73;13.65;;;7.00;99.90;;;;;;5060367;28;20024;-72
2021/04/30 04:04:50;;;;;;;19.77;13.65;;;7.00;99.90;;;;;;5059653;28;20028;-72
2021/04/30 04:07:19;;;;;;;21.25;13.30;;;7.00;99.90;;;;;;5059693;28;20293;-72
2021/04/30 04:09:46;;;;;;;23.33;14.57;;;7.00;99.90;;;;;;5059547;28;20435;-72
2021/04/30 04:12:14;;;;;;;24.30;14.90;;;7.00;99.90;;;;;;5059471;28;20033;-72
2021/04/30 04:14:42;;;;;;;23.02;13.82;;;7.00;99.90;;;;;;5059109;28;20052;-72
2021/04/30 04:17:11;;;;;;;22.55;14.13;;;7.00;99.90;;;;;;5060692;28;20424;-72
2021/04/30 04:19:39;;;;;;;25.50;15.68;;;7.00;99.90;;;;;;5060105;28;20064;-72
2021/04/30 04:22:07;;;;;;;24.75;14.50;;;7.00;99.90;;;;;;5043325;28;20028;-71
2021/04/30 04:24:34;;;;;;;22.00;14.20;;;7.00;99.90;;;;;;5060077;28;20025;-71
2021/04/30 04:27:02;;;;;;;26.65;16.42;;;7.00;99.90;;;;;;5060356;28;20025;-71
2021/04/30 04:29:29;;;;;;;24.80;15.27;;;7.00;99.90;;;;;;5059984;28;20368;-71
2021/04/30 04:31:57;;;;;;;26.17;14.85;;;7.00;99.90;;;;;;5060084;28;20021;-71
2021/04/30 04:34:25;;;;;;;24.42;15.00;;;7.00;99.90;;;;;;5059825;28;20105;-72
2021/04/30 04:36:55;;;;;;;26.73;15.57;;;7.10;99.90;;;;;;5058933;28;20056;-71
2021/04/30 04:39:29;;;;;;;25.50;15.82;;;7.10;99.90;;;;;;5059022;28;20032;-71
2021/04/30 04:41:57;;;;;;;26.63;15.63;;;7.10;99.90;;;;;;5058771;28;20029;-71
2021/04/30 04:44:24;;;;;;;27.35;16.48;;;7.20;99.90;;;;;;5058984;28;20017;-71
2021/04/30 04:46:52;;;;;;;25.27;15.45;;;7.20;99.90;;;;;;5059031;28;20109;-71
2021/04/30 04:49:20;;;;;;;28.02;16.05;;;7.20;99.90;;;;;;5059419;28;20032;-71
2021/04/30 04:51:48;;;;;;;28.17;17.58;;;7.20;99.90;;;;;;5059086;28;20031;-71
2021/04/30 04:54:16;;;;;;;24.13;15.57;;;7.30;99.90;;;;;;5058740;28;20024;-71
2021/04/30 04:56:43;;;;;;;27.42;16.75;;;7.30;99.90;;;;;;5058614;28;20021;-71
2021/04/30 04:59:11;;;;;;;26.45;17.08;;;7.30;99.90;;;;;;5060044;28;20075;-71
2021/04/30 05:01:39;;;;;;;26.65;16.48;;;7.30;99.90;;;;;;5060064;28;20025;-71
2021/04/30 05:04:06;;;;;;;28.20;16.67;;;7.30;99.90;;;;;;5059271;28;20037;-71
2021/04/30 05:06:34;;;;;;;27.90;16.17;;;7.30;99.90;;;;;;5059464;28;20061;-71
2021/04/30 05:09:03;;;;;;;28.60;16.73;;;7.30;99.90;;;;;;5059925;28;20496;-71
2021/04/30 05:11:31;;;;;;;27.83;16.70;;;7.30;99.90;;;;;;5059884;28;20029;-71
2021/04/30 05:13:59;;;;;;;25.65;16.58;;;7.30;99.90;;;;;;5059241;28;20254;-71
2021/04/30 05:16:27;;;;;;;27.23;17.30;;;7.30;99.90;;;;;;5059246;28;20033;-71
2021/04/30 05:18:55;;;;;;;28.50;17.48;;;7.30;99.90;;;;;;5057142;28;20028;-71
2021/04/30 05:21:22;;;;;;;31.50;17.77;;;7.30;99.90;;;;;;5058254;28;20096;-71
2021/04/30 05:23:50;;;;;;;31.48;18.23;;;7.30;99.90;;;;;;5058154;28;20027;-72
2021/04/30 05:26:18;;;;;;;35.45;20.15;;;7.20;99.90;;;;;;5040585;28;20033;-71
2021/04/30 05:28:45;;;;;;;32.00;19.92;;;7.20;99.90;;;;;;5058137;28;20025;-71
2021/04/30 05:31:13;;;;;;;32.35;19.70;;;7.20;99.90;;;;;;5040373;28;20036;-71
2021/04/30 05:33:41;;;;;;;29.95;18.83;;;7.20;99.90;;;;;;5058006;28;20017;-71
2021/04/30 05:36:08;;;;;;;31.42;18.83;;;7.30;99.90;;;;;;5057679;28;20032;-71
2021/04/30 05:38:36;;;;;;;30.45;17.50;;;7.30;99.90;;;;;;5058021;28;20029;-71
2021/04/30 05:41:04;;;;;;;33.05;18.80;;;7.30;99.90;;;;;;5058647;28;20028;-71
2021/04/30 05:43:32;;;;;;;32.58;19.13;;;7.30;99.90;;;;;;5058814;28;20443;-72
2021/04/30 05:46:00;;;;;;;28.70;17.98;;;7.30;99.90;;;;;;5059257;28;20107;-71
2021/04/30 05:48:27;;;;;;;29.98;18.77;;;7.30;99.90;;;;;;5058864;28;20052;-71
2021/04/30 05:50:55;;;;;;;28.73;17.45;;;7.40;99.90;;;;;;5059012;28;20033;-71
2021/04/30 05:53:23;;;;;;;30.38;19.67;;;7.40;99.90;;;;;;5058435;28;20559;-71
2021/04/30 05:55:51;;;;;;;33.28;18.58;;;7.40;99.90;;;;;;5040691;28;20044;-71
2021/04/30 05:58:19;;;;;;;28.92;17.38;;;7.50;99.90;;;;;;5058599;28;20104;-71
2021/04/30 06:00:47;;;;;;;31.27;18.77;;;7.50;99.90;;;;;;5057550;28;20021;-71
2021/04/30 06:03:15;;;;;;;31.35;17.88;;;7.60;99.90;;;;;;5057312;28;20120;-72
2021/04/30 06:05:44;;;;;;;32.70;18.73;;;7.60;99.90;;;;;;5039552;28;20028;-74
2021/04/30 06:08:11;;;;;;;29.05;17.83;;;7.70;99.90;;;;;;5056795;28;20071;-74
2021/04/30 06:10:39;;;;;;;30.30;17.77;;;7.70;99.90;;;;;;5039410;28;20104;-75
2021/04/30 06:13:08;;;;;;;25.00;16.33;;;7.70;99.90;;;;;;5057411;28;20421;-75
2021/04/30 06:15:35;;;;;;;27.27;16.75;;;7.80;99.90;;;;;;5057061;28;20459;-76
2021/04/30 06:18:04;;;;;;;28.95;17.83;;;7.80;99.90;;;;;;5058126;28;20116;-75
2021/04/30 06:20:31;;;;;;;33.75;18.70;;;7.80;99.90;;;;;;5057617;28;20074;-76
2021/04/30 06:22:59;;;;;;;30.08;18.33;;;7.90;99.90;;;;;;5058452;28;20031;-75
2021/04/30 06:25:27;;;;;;;26.40;16.60;;;7.90;99.90;;;;;;5058493;28;20363;-75
2021/04/30 06:27:55;;;;;;;27.83;16.85;;;7.90;99.90;;;;;;5057990;28;20066;-73
2021/04/30 06:30:23;;;;;;;25.85;16.40;;;8.00;99.90;;;;;;5057938;28;20048;-73
2021/04/30 06:32:50;;;;;;;28.20;17.95;;;8.00;99.90;;;;;;5058549;28;20029;-76
2021/04/30 06:35:18;;;;;;;31.63;19.50;;;8.10;99.90;;;;;;5057765;28;20021;-76
2021/04/30 06:37:46;;;;;;;25.60;16.33;;;8.10;99.90;;;;;;5057743;28;20017;-75
2021/04/30 06:40:14;;;;;;;26.40;16.60;;;8.20;99.90;;;;;;5057241;28;20029;-75
2021/04/30 06:42:43;;;;;;;27.42;17.15;;;8.30;99.90;;;;;;5056919;28;20017;-75
2021/04/30 06:45:11;;;;;;;26.40;16.42;;;8.40;99.90;;;;;;5056560;28;20108;-72
2021/04/30 06:47:39;;;;;;;27.98;16.65;;;8.40;99.90;;;;;;5056765;28;20041;-74
2021/04/30 06:50:07;;;;;;;28.08;16.98;;;8.40;99.90;;;;;;5038888;28;20116;-74
2021/04/30 06:52:35;;;;;;;25.73;15.63;;;8.50;99.90;;;;;;5056742;28;20029;-75
2021/04/30 06:55:02;;;;;;;27.08;14.85;;;8.50;99.90;;;;;;5057070;28;20028;-74
2021/04/30 06:57:30;;;;;;;23.48;15.40;;;8.60;99.90;;;;;;5038786;28;20033;-75
2021/04/30 06:59:58;;;;;;;26.08;16.00;;;8.60;99.90;;;;;;5056333;28;20150;-75
2021/04/30 07:02:26;;;;;;;23.65;16.15;;;8.60;99.90;;;;;;5057568;28;20024;-75
2021/04/30 07:04:57;;;;;;;24.55;15.95;;;8.70;99.90;;;;;;5057406;28;20122;-75
2021/04/30 07:07:26;;;;;;;21.80;13.98;;;8.70;99.90;;;;;;5057351;28;20060;-75
2021/04/30 07:09:54;;;;;;;20.50;13.38;;;8.80;99.90;;;;;;5057310;28;20433;-74
2021/04/30 07:12:23;;;;;;;23.30;14.48;;;8.80;99.90;;;;;;5057777;28;20082;-75
2021/04/30 07:14:51;;;;;;;19.08;12.98;;;8.90;99.90;;;;;;5057379;28;20045;-77
2021/04/30 07:17:19;;;;;;;20.95;13.75;;;8.90;99.90;;;;;;5039496;28;20033;-74
2021/04/30 07:19:46;;;;;;;22.52;13.13;;;9.00;99.90;;;;;;5057251;28;20017;-76
2021/04/30 07:22:14;;;;;;;24.67;14.25;;;9.00;99.90;;;;;;5061490;28;20355;-76
2021/04/30 07:24:43;;;;;;;17.90;12.20;;;9.00;99.90;;;;;;5060478;28;20013;-74
2021/04/30 07:27:11;;;;;;;20.15;13.00;;;9.00;99.90;;;;;;5060875;28;20021;-73
2021/04/30 07:29:39;;;;;;;19.52;12.13;;;9.10;99.90;;;;;;5060955;28;20285;-74
2021/04/30 07:32:07;;;;;;;19.17;12.75;;;9.10;99.90;;;;;;5060209;28;20025;-73
2021/04/30 07:34:34;;;;;;;19.25;12.55;;;9.10;99.90;;;;;;5060207;28;20033;-74
2021/04/30 07:37:01;;;;;;;20.92;13.38;;;9.20;99.90;;;;;;5060173;28;20025;-76
2021/04/30 07:39:29;;;;;;;19.30;12.77;;;9.30;99.90;;;;;;5060205;28;20094;-73
2021/04/30 07:41:56;;;;;;;21.27;13.63;;;9.40;99.90;;;;;;5061202;28;20308;-73
2021/04/30 07:44:24;;;;;;;18.10;12.07;;;9.50;99.90;;;;;;5026924;28;20408;-75
2021/04/30 07:46:52;;;;;;;15.50;10.85;;;9.50;99.90;;;;;;5043525;28;20025;-75
2021/04/30 07:49:20;;;;;;;18.63;11.15;;;9.60;99.90;;;;;;5043185;28;20028;-74
2021/04/30 07:51:47;;;;;;;16.90;11.75;;;9.60;99.90;;;;;;5061046;28;20408;-75
2021/04/30 07:54:17;;;;;;;18.63;12.68;;;9.70;99.90;;;;;;5043140;28;20115;-72
2021/04/30 07:56:50;;;;;;;16.42;10.70;;;9.80;99.90;;;;;;5060795;28;20029;-73
2021/04/30 07:59:18;;;;;;;17.95;11.50;;;9.90;99.90;;;;;;5060580;28;20029;-75
2021/04/30 08:01:46;;;;;;;15.70;10.82;;;10.00;99.90;;;;;;5060218;28;20416;-73
2021/04/30 08:04:13;;;;;;;15.77;10.52;;;10.20;99.90;;;;;;5042100;28;20067;-75
2021/04/30 08:06:41;;;;;;;17.70;10.57;;;10.30;99.90;;;;;;5059824;28;20021;-74
2021/04/30 08:09:09;;;;;;;16.77;10.98;;;10.50;99.90;;;;;;5041873;28;20509;-74
2021/04/30 08:11:36;;;;;;;16.17;10.32;;;10.60;99.90;;;;;;5060132;28;20028;-74
2021/04/30 08:14:09;;;;;;;14.65;9.07;;;10.60;99.90;;;;;;5059804;28;20025;-74
2021/04/30 08:16:37;;;;;;;12.57;9.57;;;10.70;99.90;;;;;;5059556;28;20037;-76
2021/04/30 08:19:06;;;;;;;13.38;9.32;;;10.70;99.90;;;;;;5059360;28;20020;-73
2021/04/30 08:21:35;;;;;;;16.85;10.55;;;10.80;99.90;;;;;;5059502;28;20413;-73
2021/04/30 08:24:05;;;;;;;16.50;10.43;;;10.80;99.90;;;;;;5060334;28;20021;-73
2021/04/30 08:26:33;;;;;;;15.25;9.93;;;10.80;99.90;;;;;;5043013;28;20025;-73
2021/04/30 08:29:01;;;;;;;17.20;10.48;;;10.80;99.90;;;;;;5060484;28;20427;-74
2021/04/30 08:31:29;;;;;;;16.15;10.88;;;10.80;99.90;;;;;;5059708;28;20056;-73
2021/04/30 08:33:56;;;;;;;18.33;11.82;;;10.90;99.90;;;;;;5060046;28;20102;-71
2021/04/30 08:36:24;;;;;;;19.08;11.68;;;10.80;99.90;;;;;;5059914;28;20409;-72
2021/04/30 08:38:52;;;;;;;17.15;10.77;;;10.80;99.90;;;;;;5060191;28;20074;-71
2021/04/30 08:41:20;;;;;;;17.23;11.40;;;10.90;99.90;;;;;;5041979;28;20494;-71
2021/04/30 08:43:48;;;;;;;18.25;11.57;;;11.00;99.90;;;;;;5041733;28;20032;-71
2021/04/30 08:46:17;;;;;;;16.17;10.60;;;11.10;99.90;;;;;;5041333;28;20025;-71
2021/04/30 08:48:45;;;;;;;18.67;11.63;;;11.10;99.90;;;;;;5060158;28;20052;-71
2021/04/30 08:51:13;;;;;;;18.27;12.10;;;11.20;99.90;;;;;;5059510;28;20045;-71
2021/04/30 08:53:41;;;;;;;20.50;12.18;;;11.20;99.90;;;;;;5059537;28;20317;-71
2021/04/30 08:56:09;;;;;;;18.73;11.90;;;11.30;99.90;;;;;;5058887;28;20028;-71
2021/04/30 08:58:39;;;;;;;15.55;10.90;;;11.30;99.90;;;;;;5059044;28;20113;-71
2021/04/30 09:01:07;;;;;;;19.98;12.18;;;11.40;99.90;;;;;;5058700;28;20021;-71
2021/04/30 09:03:35;;;;;;;17.05;10.82;;;11.50;99.90;;;;;;5060624;28;20062;-73
2021/04/30 09:06:03;;;;;;;17.67;11.90;;;11.60;99.90;;;;;;5059632;28;20017;-73
2021/04/30 09:08:49;;;;;;;16.10;11.25;;;11.70;99.90;;;;;;5059695;28;20040;-73
2021/04/30 09:11:35;;;;;;;16.33;10.77;;;11.90;99.90;;;;;;5059433;28;20021;-73
2021/04/30 09:14:36;;;;;;;15.82;11.15;;;12.00;99.90;;;;;;5059137;28;20032;-73
2021/04/30 09:17:15;;;;;;;14.88;10.90;;;12.00;99.90;;;;;;5059381;28;20043;-73
2021/04/30 09:19:55;;;;;;;17.33;11.80;;;12.10;99.90;;;;;;5059794;28;20035;-73
2021/04/30 09:22:32;;;;;;;16.17;11.70;;;12.30;99.90;;;;;;5058456;28;20067;-71
2021/04/30 09:25:01;;;;;;;17.45;11.90;;;12.40;99.90;;;;;;5059406;28;20474;-71
2021/04/30 09:27:49;;;;;;;18.00;10.63;;;12.50;99.90;;;;;;5059137;28;20060;-71
2021/04/30 09:30:28;;;;;;;18.48;12.20;;;12.60;99.90;;;;;;5058610;28;20048;-71
2021/04/30 09:33:09;;;;;;;17.77;11.70;;;12.70;99.90;;;;;;5058097;28;20025;-71
2021/04/30 09:35:45;;;;;;;16.58;10.85;;;12.80;99.90;;;;;;5058640;28;20108;-71
2021/04/30 09:38:22;;;;;;;18.60;12.70;;;12.90;99.90;;;;;;5057295;28;20033;-71
2021/04/30 09:41:08;;;;;;;18.95;10.77;;;13.00;99.90;;;;;;5058249;28;20029;-71
2021/04/30 09:43:52;;;;;;;15.37;10.63;;;13.10;99.90;;;;;;5057322;28;20102;-71
2021/04/30 09:46:29;;;;;;;17.50;12.10;;;13.10;99.90;;;;;;5059094;28;20116;-71
2021/04/30 09:49:05;;;;;;;16.40;10.68;;;13.10;99.90;;;;;;5058968;28;20302;-71
2021/04/30 09:51:46;;;;;;;14.40;10.77;;;13.10;99.90;;;;;;5059248;28;20078;-71
2021/04/30 09:54:29;;;;;;;17.90;11.55;;;13.10;99.90;;;;;;5060751;28;20029;-71
2021/04/30 09:57:07;;;;;;;20.08;10.85;;;13.10;99.90;;;;;;5058471;28;20029;-71
2021/04/30 09:59:36;;;;;;;17.17;11.18;;;13.00;99.90;;;;;;5059172;28;20021;-71
2021/04/30 10:02:07;;;;;;;16.80;10.95;;;13.00;99.90;;;;;;5058876;28;20032;-71
2021/04/30 10:04:36;;;;;;;17.10;11.25;;;13.00;99.90;;;;;;5057537;28;20100;-71
2021/04/30 10:07:06;;;;;;;14.40;9.40;;;13.00;99.90;;;;;;5039656;28;20074;-71
2021/04/30 10:09:34;;;;;;;16.15;10.75;;;13.00;99.90;;;;;;5057594;28;20032;-71
2021/04/30 10:12:21;;;;;;;16.45;11.52;;;12.90;99.90;;;;;;5042038;28;20028;-71
2021/04/30 10:14:50;;;;;;;15.13;11.15;;;12.80;99.90;;;;;;5058057;28;20130;-71
2021/04/30 10:17:18;;;;;;;15.52;11.57;;;12.60;99.90;;;;;;5058040;28;20052;-71
2021/04/30 10:19:47;;;;;;;18.98;11.35;;;12.40;99.90;;;;;;5058257;28;20024;-71
2021/04/30 10:22:18;;;;;;;19.55;11.88;;;12.20;99.90;;;;;;5056826;28;20102;-71
2021/04/30 10:24:54;;;;;;;15.68;11.57;;;12.00;99.90;;;;;;5058497;28;20017;-71
2021/04/30 10:27:34;;;;;;;18.80;12.27;;;11.70;99.90;;;;;;5056884;28;20037;-71
2021/04/30 10:30:30;;;;;;;19.33;12.70;;;11.40;99.90;;;;;;5057108;28;20029;-71
2021/04/30 10:33:13;;;;;;;18.73;12.55;;;11.10;99.90;;;;;;5057230;28;20036;-71
2021/04/30 10:35:56;;;;;;;21.00;13.68;;;10.90;99.90;;;;;;5057333;28;20021;-71
2021/04/30 10:38:26;;;;;;;19.83;12.73;;;10.80;99.90;;;;;;5056824;28;20412;-71
2021/04/30 10:41:04;;;;;;;19.08;13.20;;;10.70;99.90;;;;;;5056872;28;20078;-71
2021/04/30 10:43:33;;;;;;;20.95;13.02;;;10.60;99.90;;;;;;5056673;28;20013;-71
2021/04/30 10:46:22;;;;;;;21.15;13.88;;;10.60;99.90;;;;;;5039203;28;20348;-71
2021/04/30 10:49:16;;;;;;;19.27;12.05;;;10.50;99.90;;;;;;5057380;28;20362;-71
2021/04/30 10:52:05;;;;;;;19.92;12.85;;;10.50;99.90;;;;;;5057731;28;20090;-70
2021/04/30 10:54:37;;;;;;;20.17;12.68;;;10.40;99.90;;;;;;5043946;28;20032;-71
2021/04/30 10:57:13;;;;;;;21.98;13.85;;;10.40;99.90;;;;;;5057623;28;20025;-71
2021/04/30 10:59:52;;;;;;;20.25;13.52;;;10.40;99.90;;;;;;5057290;28;20028;-72
2021/04/30 11:02:31;;;;;;;20.63;12.68;;;10.30;99.90;;;;;;5057449;28;20059;-75
2021/04/30 11:05:22;;;;;;;24.42;13.50;;;10.40;99.90;;;;;;5057823;28;20075;-74
2021/04/30 11:07:55;;;;;;;27.92;14.98;;;10.30;99.90;;;;;;5056649;28;20328;-76
2021/04/30 11:10:26;;;;;;;23.23;13.60;;;10.30;99.90;;;;;;5039648;28;20032;-73
2021/04/30 11:13:00;;;;;;;20.30;12.50;;;10.30;99.90;;;;;;5057462;28;20033;-75
2021/04/30 11:15:33;;;;;;;20.40;13.80;;;10.30;99.90;;;;;;5056380;28;20337;-71
2021/04/30 11:18:04;;;;;;;21.35;14.48;;;10.30;99.90;;;;;;5056356;28;20425;-73
2021/04/30 11:20:34;;;;;;;22.20;14.32;;;10.30;99.90;;;;;;5056452;28;20028;-73
2021/04/30 11:23:23;;;;;;;24.35;13.65;;;10.30;99.90;;;;;;5056211;28;20025;-73
2021/04/30 11:26:01;;;;;;;24.40;13.60;;;10.40;99.90;;;;;;5056923;28;20435;-74
2021/04/30 11:28:31;;;;;;;20.02;13.48;;;10.40;99.90;;;;;;5056661;28;20036;-73
2021/04/30 11:31:07;;;;;;;21.08;13.55;;;10.40;99.90;;;;;;5057884;28;20025;-75
2021/04/30 11:33:43;;;;;;;20.90;13.60;;;10.50;99.90;;;;;;5057159;28;20413;-72
2021/04/30 11:36:14;;;;;;;21.40;13.23;;;10.50;99.90;;;;;;5057357;28;20035;-71
2021/04/30 11:38:50;;;;;;;18.60;13.48;;;10.60;99.90;;;;;;5057209;28;20328;-73
2021/04/30 11:41:19;;;;;;;;;;;10.60;99.90;;;;;;5057603;28;20375;-71
2021/04/30 11:43:51;;;;;;;19.13;12.38;;;10.80;99.90;;;;;;5057091;28;19905;-73
2021/04/30 11:46:19;;;;;;;19.60;12.23;;;10.90;99.90;;;;;;5057020;28;20032;-71
2021/04/30 11:48:47;;;;;;;18.95;12.63;;;11.10;99.90;;;;;;5056669;28;20021;-73
2021/04/30 11:51:15;;;;;;;19.45;12.63;;;11.20;99.90;;;;;;5056440;28;20426;-72
2021/04/30 11:53:44;;;;;;;17.65;11.63;;;11.30;99.90;;;;;;5039520;28;20025;-72
2021/04/30 11:56:12;;;;;;;18.70;11.88;;;11.30;99.90;;;;;;5055896;28;20033;-72
2021/04/30 11:58:41;;;;;;;15.93;10.75;;;11.40;99.90;;;;;;5038315;28;20021;-73
2021/04/30 12:01:10;;;;;;;15.60;11.32;;;11.40;99.90;;;;;;5056239;28;20029;-72
2021/04/30 12:03:55;;;;;;;17.88;11.85;;;11.40;99.90;;;;;;5056155;28;20029;-72
2021/04/30 12:06:24;;;;;;;19.15;11.95;;;11.50;99.90;;;;;;5056442;28;20107;-71
2021/04/30 12:08:54;;;;;;;16.63;11.02;;;11.50;99.90;;;;;;5059705;28;20104;-72
2021/04/30 12:11:25;;;;;;;17.73;12.00;;;11.50;99.90;;;;;;5060269;28;20066;-72
2021/04/30 12:13:54;;;;;;;15.93;11.10;;;11.50;99.90;;;;;;5060579;28;20028;-72
2021/04/30 12:16:22;;;;;;;18.23;11.27;;;11.50;99.90;;;;;;5060337;28;20074;-72
2021/04/30 12:18:57;;;;;;;17.55;10.98;;;11.40;99.90;;;;;;5060302;28;20017;-72
2021/04/30 12:21:31;;;;;;;20.23;12.80;;;11.40;99.90;;;;;;5060410;28;20029;-73
2021/04/30 12:24:00;;;;;;;18.25;11.93;;;11.40;99.90;;;;;;5061060;28;20021;-74
2021/04/30 12:26:36;;;;;;;18.60;11.68;;;11.40;99.90;;;;;;5060330;28;20033;-74
2021/04/30 12:29:07;;;;;;;18.15;11.75;;;11.30;99.90;;;;;;5060422;28;20086;-72
2021/04/30 12:31:35;;;;;;;16.58;12.20;;;11.20;99.90;;;;;;5059289;28;20021;-74
2021/04/30 12:34:03;;;;;;;17.08;11.77;;;11.10;99.90;;;;;;5059314;28;20448;-74
2021/04/30 12:36:33;;;;;;;16.33;11.60;;;11.10;99.90;;;;;;5041287;28;20029;-73
2021/04/30 12:39:02;;;;;;;19.80;12.77;;;11.10;99.90;;;;;;5059097;28;20024;-75
2021/04/30 12:41:32;;;;;;;19.48;12.40;;;11.10;99.90;;;;;;5059672;28;20032;-74
2021/04/30 12:44:02;;;;;;;17.20;12.10;;;11.10;99.90;;;;;;5059260;28;20025;-74
2021/04/30 12:46:35;;;;;;;18.75;13.23;;;11.20;99.90;;;;;;5058972;28;20103;-74
2021/04/30 12:49:10;;;;;;;18.52;12.35;;;11.20;99.90;;;;;;5059049;28;20078;-74